createdAt,value
2023-01-30T00:01:06.425Z,55.50
2023-01-30T00:03:35.220Z,50.37
2023-01-30T00:06:04.877Z,49.10
2023-01-30T00:08:33.183Z,59.03
2023-01-30T00:11:05.343Z,61.20
2023-01-30T00:13:33.744Z,55.87
2023-01-30T00:16:02.151Z,48.93
2023-01-30T00:18:30.434Z,55.37
2023-01-30T00:20:58.841Z,49.00
2023-01-30T00:23:29.559Z,55.70
2023-01-30T00:25:57.960Z,66.03
2023-01-30T00:28:26.276Z,58.70
2023-01-30T00:30:55.493Z,47.17
2023-01-30T00:33:24.996Z,45.53
2023-01-30T00:35:53.924Z,53.27
2023-01-30T00:38:22.509Z,56.63
2023-01-30T00:40:52.176Z,47.43
2023-01-30T00:43:39.075Z,61.63
2023-01-30T00:46:28.387Z,60.37
2023-01-30T00:48:56.607Z,53.33
2023-01-30T00:51:24.953Z,68.43
2023-01-30T00:53:53.172Z,59.07
2023-01-30T00:56:22.779Z,54.70
2023-01-30T00:58:51.006Z,49.97
2023-01-30T01:01:19.209Z,54.53
2023-01-30T01:03:47.743Z,58.97
2023-01-30T01:06:15.988Z,58.13
2023-01-30T01:08:44.276Z,62.23
2023-01-30T01:11:24.050Z,57.33
2023-01-30T01:13:54.322Z,50.73
2023-01-30T01:16:22.969Z,57.97
2023-01-30T01:18:51.729Z,63.20
2023-01-30T01:21:20.396Z,64.57
2023-01-30T01:23:51.480Z,54.93
2023-01-30T01:26:19.715Z,62.53
2023-01-30T01:28:47.955Z,64.33
2023-01-30T01:31:18.440Z,56.60
2023-01-30T01:33:46.708Z,52.97
2023-01-30T01:36:29.286Z,69.07
2023-01-30T01:39:03.467Z,63.73
2023-01-30T01:41:31.107Z,55.93
2023-01-30T01:44:02.490Z,70.27
2023-01-30T01:46:33.301Z,45.80
2023-01-30T01:49:03.204Z,64.37
2023-01-30T01:51:33.348Z,64.80
2023-01-30T01:54:04.187Z,51.10
2023-01-30T01:56:34.938Z,63.97
2023-01-30T01:59:05.167Z,59.43
2023-01-30T02:01:35.097Z,62.23
2023-01-30T02:04:08.930Z,55.77
2023-01-30T02:06:38.013Z,71.77
2023-01-30T02:09:09.430Z,61.37
2023-01-30T02:11:41.610Z,71.03
2023-01-30T02:14:10.869Z,63.37
2023-01-30T02:16:40.499Z,65.00
2023-01-30T02:19:13.749Z,87.50
2023-01-30T02:22:02.088Z,42.90
2023-01-30T02:24:47.958Z,66.77
2023-01-30T02:27:19.241Z,68.40
2023-01-30T02:30:06.291Z,68.50
2023-01-30T02:32:38.521Z,75.77
2023-01-30T02:35:10.993Z,65.70
2023-01-30T02:37:44.372Z,56.87
2023-01-30T02:40:19.647Z,65.43
2023-01-30T02:42:53.562Z,64.90
2023-01-30T02:45:26.447Z,66.20
2023-01-30T02:47:59.404Z,63.87
2023-01-30T02:50:30.783Z,63.60
2023-01-30T02:52:59.769Z,63.73
2023-01-30T02:55:28.872Z,59.47
2023-01-30T02:57:57.453Z,57.70
2023-01-30T03:00:30.562Z,72.03
2023-01-30T03:03:14.020Z,51.43
2023-01-30T03:05:54.236Z,63.70
2023-01-30T03:08:27.399Z,44.80
2023-01-30T03:11:00.418Z,46.73
2023-01-30T03:13:31.289Z,65.93
2023-01-30T03:16:01.798Z,58.30
2023-01-30T03:18:31.315Z,51.20
2023-01-30T03:21:05.271Z,47.80
2023-01-30T03:23:33.518Z,46.07
2023-01-30T03:26:02.371Z,49.60
2023-01-30T03:28:30.752Z,51.53
2023-01-30T03:30:59.087Z,53.33
2023-01-30T03:33:27.343Z,61.70
2023-01-30T03:35:56.985Z,58.23
2023-01-30T03:38:25.552Z,53.57
2023-01-30T03:40:53.982Z,46.70
2023-01-30T03:43:22.157Z,58.93
2023-01-30T03:45:50.453Z,61.40
2023-01-30T03:48:18.725Z,50.77
2023-01-30T03:50:46.933Z,54.13
2023-01-30T03:53:16.743Z,28.30
2023-01-30T03:55:45.845Z,37.57
2023-01-30T03:58:14.059Z,49.40
2023-01-30T04:00:42.501Z,46.23
2023-01-30T04:03:10.727Z,50.63
2023-01-30T04:05:39.080Z,46.77
2023-01-30T04:08:07.372Z,50.20
2023-01-30T04:10:37.033Z,38.53
2023-01-30T04:13:05.264Z,36.80
2023-01-30T04:15:33.467Z,47.23
2023-01-30T04:18:01.712Z,44.30
2023-01-30T04:20:30.024Z,49.23
2023-01-30T04:22:58.286Z,43.87
2023-01-30T04:25:26.604Z,50.23
2023-01-30T04:27:56.198Z,53.60
2023-01-30T04:30:24.532Z,45.07
2023-01-30T04:32:52.804Z,51.00
2023-01-30T04:35:21.018Z,52.63
2023-01-30T04:37:49.253Z,40.60
2023-01-30T04:40:17.558Z,60.33
2023-01-30T04:42:45.740Z,47.07
2023-01-30T04:45:15.461Z,46.43
2023-01-30T04:47:43.788Z,64.70
2023-01-30T04:50:12.610Z,61.47
2023-01-30T04:52:40.772Z,46.83
2023-01-30T04:55:09.318Z,39.13
2023-01-30T04:57:37.571Z,54.57
2023-01-30T05:00:06.246Z,52.70
2023-01-30T05:02:36.188Z,45.53
2023-01-30T05:05:04.435Z,47.00
2023-01-30T05:07:32.823Z,45.13
2023-01-30T05:10:02.875Z,53.03
2023-01-30T05:12:31.630Z,48.97
2023-01-30T05:14:59.958Z,43.27
2023-01-30T05:17:28.154Z,52.63
2023-01-30T05:19:58.893Z,33.73
2023-01-30T05:22:27.118Z,32.37
2023-01-30T05:24:55.486Z,43.10
2023-01-30T05:27:23.681Z,34.37
2023-01-30T05:29:51.973Z,40.00
2023-01-30T05:32:21.280Z,41.80
2023-01-30T05:34:50.488Z,28.60
2023-01-30T05:37:20.111Z,29.63
2023-01-30T05:39:48.440Z,31.73
2023-01-30T05:42:17.149Z,36.07
2023-01-30T05:44:46.052Z,31.20
2023-01-30T05:47:14.404Z,28.23
2023-01-30T05:49:42.993Z,32.33
2023-01-30T05:52:11.215Z,27.47
2023-01-30T05:54:40.773Z,26.30
2023-01-30T05:57:08.997Z,30.77
2023-01-30T05:59:37.212Z,25.63
2023-01-30T06:02:05.502Z,28.33
2023-01-30T06:04:33.771Z,28.67
2023-01-30T06:07:02.094Z,23.63
2023-01-30T06:09:30.296Z,29.87
2023-01-30T06:11:59.917Z,21.93
2023-01-30T06:14:28.219Z,18.87
2023-01-30T06:16:56.517Z,25.17
2023-01-30T06:19:25.029Z,23.00
2023-01-30T06:21:53.255Z,22.17
2023-01-30T06:24:21.459Z,15.80
2023-01-30T06:26:49.804Z,20.07
2023-01-30T06:29:19.364Z,21.63
2023-01-30T06:31:47.697Z,19.03
2023-01-30T06:34:16.100Z,17.03
2023-01-30T06:36:44.321Z,17.23
2023-01-30T06:39:12.618Z,19.03
2023-01-30T06:41:40.859Z,20.33
2023-01-30T06:44:10.374Z,18.13
2023-01-30T06:46:39.953Z,16.87
2023-01-30T06:49:08.265Z,23.40
2023-01-30T06:51:36.496Z,19.70
2023-01-30T06:54:04.725Z,17.17
2023-01-30T06:56:32.917Z,20.50
2023-01-30T06:59:01.117Z,18.80
2023-01-30T07:01:29.343Z,22.63
2023-01-30T07:03:58.987Z,18.63
2023-01-30T07:06:28.342Z,17.33
2023-01-30T07:08:58.402Z,13.80
2023-01-30T07:11:26.727Z,15.57
2023-01-30T07:13:54.970Z,15.90
2023-01-30T07:16:28.784Z,19.87
2023-01-30T07:18:58.508Z,17.03
2023-01-30T07:21:28.377Z,19.10
2023-01-30T07:23:56.564Z,15.27
2023-01-30T07:26:25.423Z,15.33
2023-01-30T07:28:53.862Z,15.90
2023-01-30T07:31:22.110Z,25.30
2023-01-30T07:33:50.366Z,23.40
2023-01-30T07:36:18.650Z,23.63
2023-01-30T07:38:49.566Z,19.50
2023-01-30T07:41:17.843Z,20.63
2023-01-30T07:43:46.092Z,21.30
2023-01-30T07:46:14.342Z,23.57
2023-01-30T07:48:42.622Z,27.37
2023-01-30T07:51:10.869Z,17.70
2023-01-30T07:53:39.082Z,24.90
2023-01-30T07:56:09.906Z,31.73
2023-01-30T07:58:38.335Z,17.97
2023-01-30T08:01:06.643Z,19.17
2023-01-30T08:03:34.875Z,25.33
2023-01-30T08:06:03.137Z,21.70
2023-01-30T08:08:31.365Z,18.47
2023-01-30T08:10:59.637Z,23.27
2023-01-30T08:13:29.233Z,20.40
2023-01-30T08:15:57.426Z,14.63
2023-01-30T08:18:25.657Z,11.70
2023-01-30T08:20:53.897Z,14.37
2023-01-30T08:23:22.265Z,17.60
2023-01-30T08:25:50.536Z,22.93
2023-01-30T08:28:18.778Z,19.87
2023-01-30T08:30:49.239Z,22.17
2023-01-30T08:33:17.549Z,21.20
2023-01-30T08:35:45.749Z,23.70
2023-01-30T08:38:14.122Z,29.73
2023-01-30T08:40:42.343Z,28.43
2023-01-30T08:43:10.963Z,29.17
2023-01-30T08:45:39.545Z,33.43
2023-01-30T08:48:09.524Z,15.47
2023-01-30T08:50:37.884Z,38.70
2023-01-30T08:53:06.839Z,30.83
2023-01-30T08:55:35.334Z,23.10
2023-01-30T08:58:03.581Z,23.87
2023-01-30T09:00:31.883Z,27.87
2023-01-30T09:03:00.529Z,23.93
2023-01-30T09:05:30.809Z,25.50
2023-01-30T09:07:59.001Z,12.50
2023-01-30T09:10:27.242Z,16.97
2023-01-30T09:12:55.540Z,29.00
2023-01-30T09:15:23.776Z,18.80
2023-01-30T09:17:53.398Z,16.60
2023-01-30T09:20:21.700Z,32.47
2023-01-30T09:22:51.239Z,13.00
2023-01-30T09:25:19.474Z,14.07
2023-01-30T09:27:49.558Z,25.00
2023-01-30T09:30:18.617Z,18.57
2023-01-30T09:32:47.067Z,25.70
2023-01-30T09:35:16.327Z,20.83
2023-01-30T09:37:53.050Z,16.57
2023-01-30T09:40:23.276Z,26.23
2023-01-30T09:42:57.115Z,10.60
2023-01-30T09:45:31.135Z,16.53
2023-01-30T09:48:05.526Z,20.73
2023-01-30T09:50:41.801Z,15.03
2023-01-30T09:53:16.441Z,26.10
2023-01-30T09:55:46.335Z,13.70
2023-01-30T09:58:18.373Z,27.63
2023-01-30T10:00:48.219Z,12.63
2023-01-30T10:03:18.466Z,24.80
2023-01-30T10:05:48.131Z,9.17
2023-01-30T10:08:23.134Z,21.13
2023-01-30T10:11:08.999Z,18.03
2023-01-30T10:13:47.728Z,21.80
2023-01-30T10:16:19.897Z,16.37
2023-01-30T10:18:56.824Z,21.73
2023-01-30T10:21:29.835Z,10.00
2023-01-30T10:24:16.405Z,16.57
2023-01-30T10:26:45.205Z,22.57
2023-01-30T10:29:15.898Z,18.53
2023-01-30T10:31:45.463Z,17.50
2023-01-30T10:34:16.345Z,19.70
2023-01-30T10:36:48.738Z,12.67
2023-01-30T10:39:24.393Z,13.03
2023-01-30T10:41:56.293Z,17.77
2023-01-30T10:44:25.124Z,13.20
2023-01-30T10:47:00.698Z,12.53
2023-01-30T10:49:33.821Z,17.40
2023-01-30T10:52:09.304Z,11.23
2023-01-30T10:54:42.178Z,4.63
2023-01-30T10:57:19.039Z,11.00
2023-01-30T10:59:52.010Z,17.63
2023-01-30T11:02:26.501Z,18.13
2023-01-30T11:05:01.870Z,11.60
2023-01-30T11:07:31.730Z,20.03
2023-01-30T11:10:01.756Z,12.77
2023-01-30T11:12:29.965Z,16.70
2023-01-30T11:14:59.787Z,12.17
2023-01-30T11:17:32.673Z,20.40
2023-01-30T11:20:04.968Z,16.27
2023-01-30T11:22:34.353Z,10.07
2023-01-30T11:25:06.019Z,12.43
2023-01-30T11:27:35.387Z,14.63
2023-01-30T11:30:08.550Z,10.63
2023-01-30T11:32:37.187Z,14.53
2023-01-30T11:35:18.352Z,17.03
2023-01-30T11:37:47.204Z,9.30
2023-01-30T11:40:25.310Z,23.37
2023-01-30T11:42:54.526Z,16.30
2023-01-30T11:45:30.073Z,4.07
2023-01-30T11:48:01.086Z,9.00
2023-01-30T11:50:36.406Z,8.23
2023-01-30T11:53:16.306Z,11.57
2023-01-30T11:56:00.249Z,14.20
2023-01-30T11:58:32.608Z,11.90
2023-01-30T12:01:01.699Z,14.53
2023-01-30T12:03:30.480Z,19.10
2023-01-30T12:05:59.626Z,15.30
2023-01-30T12:08:41.173Z,10.80
2023-01-30T12:11:26.063Z,18.30
2023-01-30T12:13:55.476Z,18.30
2023-01-30T12:16:25.586Z,12.70
2023-01-30T12:18:58.009Z,7.07
2023-01-30T12:21:29.965Z,8.47
2023-01-30T12:24:00.766Z,22.37
2023-01-30T12:26:32.796Z,9.83
2023-01-30T12:29:04.147Z,10.60
2023-01-30T12:31:35.853Z,9.70
2023-01-30T12:34:04.362Z,13.33
2023-01-30T12:36:35.438Z,11.23
2023-01-30T12:39:08.251Z,12.80
2023-01-30T12:41:51.329Z,11.23
2023-01-30T12:44:35.435Z,11.13
2023-01-30T12:47:14.044Z,7.50
2023-01-30T12:49:49.873Z,7.70
2023-01-30T12:52:30.820Z,10.73
2023-01-30T12:55:04.040Z,14.53
2023-01-30T12:57:36.971Z,19.20
2023-01-30T13:00:19.812Z,12.37
2023-01-30T13:02:55.990Z,7.37
2023-01-30T13:05:31.526Z,12.80
2023-01-30T13:08:11.025Z,17.97
2023-01-30T13:10:42.612Z,10.57
2023-01-30T13:13:15.506Z,9.37
2023-01-30T13:15:47.018Z,16.67
2023-01-30T13:18:16.773Z,14.13
2023-01-30T13:20:51.278Z,13.53
2023-01-30T13:23:20.652Z,9.67
2023-01-30T13:25:54.387Z,19.57
2023-01-30T13:28:26.181Z,14.20
2023-01-30T13:30:57.515Z,11.27
2023-01-30T13:33:27.430Z,13.53
2023-01-30T13:35:58.370Z,4.33
2023-01-30T13:38:28.461Z,19.83
2023-01-30T13:40:58.404Z,11.03
2023-01-30T13:43:28.410Z,11.53
2023-01-30T13:46:00.206Z,13.30
2023-01-30T13:48:35.365Z,7.93
2023-01-30T13:51:13.358Z,7.47
2023-01-30T13:53:45.279Z,13.67
2023-01-30T13:56:39.721Z,9.53
2023-01-30T13:59:10.990Z,20.17
2023-01-30T14:01:57.965Z,19.47
2023-01-30T14:04:46.274Z,10.33
2023-01-30T14:07:17.804Z,13.37
2023-01-30T14:09:47.489Z,3.83
2023-01-30T14:12:19.862Z,8.73
2023-01-30T14:14:59.436Z,11.90
2023-01-30T14:17:27.768Z,21.60
2023-01-30T14:20:16.542Z,25.33
2023-01-30T14:22:52.566Z,11.10
2023-01-30T14:25:35.255Z,28.90
2023-01-30T14:28:22.470Z,12.67
2023-01-30T14:30:52.225Z,6.40
2023-01-30T14:33:39.596Z,13.63
2023-01-30T14:36:26.497Z,17.13
2023-01-30T14:39:19.480Z,8.43
2023-01-30T14:42:07.796Z,17.00
2023-01-30T14:45:00.809Z,14.73
2023-01-30T14:47:33.892Z,11.13
2023-01-30T14:50:20.293Z,16.77
2023-01-30T14:52:50.004Z,11.23
2023-01-30T14:55:23.379Z,3.83
2023-01-30T14:57:56.902Z,3.37
2023-01-30T15:00:29.328Z,6.90
2023-01-30T15:02:58.946Z,4.90
2023-01-30T15:05:29.366Z,9.47
2023-01-30T15:08:00.155Z,10.67
2023-01-30T15:10:43.014Z,10.87
2023-01-30T15:13:17.915Z,2.90
2023-01-30T15:15:51.605Z,3.70
2023-01-30T15:18:28.339Z,7.23
2023-01-30T15:21:05.810Z,11.57
2023-01-30T15:23:46.801Z,7.37
2023-01-30T15:26:24.909Z,6.50
2023-01-30T15:28:58.165Z,5.37
2023-01-30T15:31:26.634Z,5.50
2023-01-30T15:33:57.458Z,8.90
2023-01-30T15:36:27.442Z,14.43
2023-01-30T15:38:59.751Z,11.57
2023-01-30T15:41:30.754Z,16.20
2023-01-30T15:44:20.576Z,15.97
2023-01-30T15:46:50.744Z,8.00
2023-01-30T15:49:31.281Z,16.80
2023-01-30T15:52:03.275Z,16.13
2023-01-30T15:54:31.527Z,8.40
2023-01-30T15:57:01.693Z,17.30
2023-01-30T15:59:32.794Z,18.03
2023-01-30T16:02:02.305Z,8.70
2023-01-30T16:04:32.038Z,11.50
2023-01-30T16:07:00.950Z,7.43
2023-01-30T16:09:29.186Z,6.13
2023-01-30T16:11:57.475Z,19.93
2023-01-30T16:14:27.047Z,14.30
2023-01-30T16:16:57.933Z,9.57
2023-01-30T16:19:28.719Z,11.27
2023-01-30T16:21:58.528Z,6.23
2023-01-30T16:24:28.937Z,12.03
2023-01-30T16:27:00.830Z,12.53
2023-01-30T16:29:32.845Z,19.47
2023-01-30T16:32:01.666Z,13.17
2023-01-30T16:34:31.404Z,12.30
2023-01-30T16:37:02.623Z,11.37
2023-01-30T16:39:32.101Z,13.23
2023-01-30T16:42:01.076Z,15.80
2023-01-30T16:44:31.390Z,10.43
2023-01-30T16:47:01.174Z,21.73
2023-01-30T16:49:40.250Z,20.33
2023-01-30T16:52:15.258Z,8.87
2023-01-30T16:54:47.521Z,8.43
2023-01-30T16:57:21.264Z,23.73
2023-01-30T16:59:50.913Z,10.90
2023-01-30T17:02:26.405Z,15.63
2023-01-30T17:04:54.646Z,14.03
2023-01-30T17:07:35.073Z,12.80
2023-01-30T17:10:03.283Z,18.00
2023-01-30T17:12:38.885Z,15.83
2023-01-30T17:15:25.966Z,16.87
2023-01-30T17:17:55.666Z,10.57
2023-01-30T17:20:24.115Z,13.23
2023-01-30T17:22:53.887Z,11.53
2023-01-30T17:25:28.875Z,16.33
2023-01-30T17:27:57.414Z,21.27
2023-01-30T17:30:25.701Z,12.73
2023-01-30T17:32:56.321Z,9.80
2023-01-30T17:35:24.562Z,19.40
2023-01-30T17:37:59.568Z,9.37
2023-01-30T17:40:34.598Z,22.27
2023-01-30T17:43:02.963Z,12.53
2023-01-30T17:45:31.798Z,11.63
2023-01-30T17:48:01.684Z,17.70
2023-01-30T17:50:30.040Z,8.90
2023-01-30T17:52:58.318Z,22.13
2023-01-30T17:55:26.731Z,19.23
2023-01-30T17:57:56.401Z,9.17
2023-01-30T18:00:25.781Z,20.33
2023-01-30T18:02:54.166Z,6.40
2023-01-30T18:05:24.268Z,16.13
2023-01-30T18:07:52.481Z,13.17
2023-01-30T18:10:22.064Z,15.40
2023-01-30T18:12:51.515Z,15.90
2023-01-30T18:15:19.941Z,14.17
2023-01-30T18:17:49.552Z,20.77
2023-01-30T18:20:20.373Z,11.93
2023-01-30T18:22:50.522Z,24.67
2023-01-30T18:25:19.080Z,20.97
2023-01-30T18:27:48.145Z,10.63
2023-01-30T18:30:18.149Z,9.40
2023-01-30T18:32:53.687Z,12.47
2023-01-30T18:35:23.011Z,14.90
2023-01-30T18:37:52.804Z,20.97
2023-01-30T18:40:22.069Z,17.80
2023-01-30T18:42:50.462Z,20.77
2023-01-30T18:45:18.917Z,14.00
2023-01-30T18:47:47.186Z,15.00
2023-01-30T18:50:15.547Z,11.00
2023-01-30T18:52:43.825Z,11.03
2023-01-30T18:55:13.418Z,13.90
2023-01-30T18:57:41.728Z,14.60
2023-01-30T19:00:10.607Z,15.80
2023-01-30T19:02:38.863Z,13.23
2023-01-30T19:05:09.178Z,17.87
2023-01-30T19:07:37.561Z,10.87
2023-01-30T19:10:06.047Z,19.77
2023-01-30T19:12:53.504Z,14.50
2023-01-30T19:15:21.857Z,16.33
2023-01-30T19:17:50.138Z,15.77
2023-01-30T19:20:20.837Z,14.17
2023-01-30T19:22:50.634Z,14.33
2023-01-30T19:25:19.061Z,15.10
2023-01-30T19:27:48.701Z,11.80
2023-01-30T19:30:17.830Z,14.93
2023-01-30T19:32:46.268Z,15.13
2023-01-30T19:35:14.502Z,13.43
2023-01-30T19:37:42.783Z,25.20
2023-01-30T19:40:11.827Z,14.73
2023-01-30T19:42:42.525Z,20.07
2023-01-30T19:45:14.924Z,11.20
2023-01-30T19:47:43.150Z,8.77
2023-01-30T19:50:12.603Z,16.00
2023-01-30T19:52:41.113Z,10.23
2023-01-30T19:55:10.067Z,14.90
2023-01-30T19:57:38.980Z,14.63
2023-01-30T20:00:07.801Z,16.60
2023-01-30T20:02:39.310Z,17.57
2023-01-30T20:05:09.777Z,11.33
2023-01-30T20:07:38.522Z,9.67
2023-01-30T20:10:07.997Z,26.43
2023-01-30T20:12:36.630Z,24.33
2023-01-30T20:15:05.634Z,14.40
2023-01-30T20:17:34.387Z,14.43
2023-01-30T20:20:02.610Z,11.13
2023-01-30T20:22:32.139Z,20.63
2023-01-30T20:25:00.416Z,12.30
2023-01-30T20:27:28.630Z,15.87
2023-01-30T20:29:56.880Z,15.93
2023-01-30T20:32:25.296Z,20.27
2023-01-30T20:34:53.541Z,11.50
2023-01-30T20:37:21.858Z,12.73
2023-01-30T20:39:51.500Z,18.10
2023-01-30T20:42:19.831Z,19.23
2023-01-30T20:44:48.093Z,18.57
2023-01-30T20:47:16.372Z,13.17
2023-01-30T20:49:44.608Z,13.37
2023-01-30T20:52:12.851Z,25.50
2023-01-30T20:54:41.061Z,14.87
2023-01-30T20:57:10.952Z,13.83
2023-01-30T20:59:39.226Z,14.90
2023-01-30T21:02:07.467Z,9.83
2023-01-30T21:04:35.725Z,23.17
2023-01-30T21:07:04.960Z,21.80
2023-01-30T21:09:33.213Z,17.93
2023-01-30T21:12:02.073Z,17.07
2023-01-30T21:14:31.770Z,15.20
2023-01-30T21:17:00.389Z,12.73
2023-01-30T21:19:28.672Z,6.87
2023-01-30T21:21:57.403Z,14.73
2023-01-30T21:24:26.804Z,10.70
2023-01-30T21:26:55.399Z,17.70
2023-01-30T21:29:24.641Z,24.13
2023-01-30T21:31:54.377Z,14.67
2023-01-30T21:34:22.875Z,15.23
2023-01-30T21:37:04.993Z,18.10
2023-01-30T21:39:50.833Z,21.03
2023-01-30T21:42:36.932Z,18.63
2023-01-30T21:45:06.758Z,20.70
2023-01-30T21:47:36.896Z,10.73
2023-01-30T21:50:05.510Z,18.50
2023-01-30T21:52:33.860Z,10.80
2023-01-30T21:55:02.172Z,17.50
2023-01-30T21:57:30.432Z,12.43
2023-01-30T21:59:58.715Z,21.23
2023-01-30T22:02:26.927Z,14.87
2023-01-30T22:04:56.492Z,17.50
2023-01-30T22:07:24.832Z,17.20
2023-01-30T22:09:53.343Z,13.50
2023-01-30T22:12:21.588Z,16.17
2023-01-30T22:14:50.109Z,8.03
2023-01-30T22:17:18.315Z,17.37
2023-01-30T22:19:46.532Z,15.03
2023-01-30T22:22:16.115Z,15.83
2023-01-30T22:24:44.364Z,9.47
2023-01-30T22:27:16.388Z,15.80
2023-01-30T22:29:44.627Z,13.17
2023-01-30T22:32:13.133Z,10.67
2023-01-30T22:34:41.400Z,23.80
2023-01-30T22:37:09.635Z,15.63
2023-01-30T22:39:40.298Z,15.13
2023-01-30T22:42:09.247Z,11.13
2023-01-30T22:44:37.500Z,14.70
2023-01-30T22:47:05.790Z,9.97
2023-01-30T22:49:34.160Z,20.93
2023-01-30T22:52:02.676Z,19.07
2023-01-30T22:54:31.003Z,25.43
2023-01-30T22:57:00.551Z,20.27
2023-01-30T22:59:28.816Z,15.37
2023-01-30T23:01:57.650Z,16.27
2023-01-30T23:04:26.332Z,15.10
2023-01-30T23:06:54.590Z,16.00
2023-01-30T23:09:24.160Z,19.10
2023-01-30T23:12:06.897Z,15.87
2023-01-30T23:14:36.914Z,12.80
2023-01-30T23:17:26.219Z,20.73
2023-01-30T23:19:53.735Z,13.97
2023-01-30T23:22:21.981Z,11.23
2023-01-30T23:24:51.232Z,22.07
2023-01-30T23:27:19.720Z,14.80
2023-01-30T23:29:49.402Z,8.70
2023-01-30T23:32:19.773Z,13.37
2023-01-30T23:34:48.136Z,17.13
2023-01-30T23:37:16.357Z,15.77
2023-01-30T23:39:44.696Z,15.83
2023-01-30T23:42:12.915Z,9.33
2023-01-30T23:44:41.111Z,19.17
2023-01-30T23:47:10.642Z,20.63
2023-01-30T23:49:39.001Z,17.23
2023-01-30T23:52:07.274Z,10.90
2023-01-30T23:54:35.530Z,27.43
2023-01-30T23:57:03.789Z,13.53
2023-01-30T23:59:32.157Z,14.37
